| Date | Time | Temp. (oF) | Dew Point (oF) | Rel. Hum. (%) | Press. (in.) | Wind Dir. | Wind Speed (mph) | Hourly Rainfall (in.) |
|
|---|---|---|---|---|---|---|---|---|---|
| 1 | 06/03 | 00:00 | 70 | 62 | 78 | 29.97 | SE | 0 | 0.00 |
| 2 | 06/02 | 23:00 | 70 | 62 | 77 | 29.97 | SSE | 0 | 0.00 |
| 3 | 06/02 | 22:00 | 71 | 61 | 73 | 29.96 | S | 3 | 0.00 |
| 4 | 06/02 | 21:00 | 73 | 62 | 70 | 29.95 | SSE | 3 | 0.00 |
| 5 | 06/02 | 20:00 | 74 | 61 | 66 | 29.95 | S | 4 | 0.00 |
| 6 | 06/02 | 19:00 | 76 | 62 | 64 | 29.93 | S | 3 | 0.00 |
| 7 | 06/02 | 18:00 | 77 | 62 | 61 | 29.92 | SSW | 0 | 0.00 |
| 8 | 06/02 | 17:00 | 78 | 62 | 60 | 29.94 | SSE | 5 | 0.00 |
| 9 | 06/02 | 16:00 | 80 | 61 | 54 | 29.94 | SSE | 0 | 0.00 |
| 10 | 06/02 | 15:00 | 79 | 61 | 56 | 29.97 | S | 0 | 0.00 |
| 11 | 06/02 | 14:00 | 78 | 63 | 62 | 30.00 | S | 0 | 0.00 |
| 12 | 06/02 | 13:00 | 77 | 64 | 65 | 30.02 | SSE | 5 | 0.00 |
| 13 | 06/02 | 12:00 | 74 | 61 | 65 | 30.03 | S | 5 | 0.00 |
| 14 | 06/02 | 11:00 | 74 | 63 | 69 | 30.04 | SSE | 4 | 0.00 |
| 15 | 06/02 | 10:00 | 68 | 60 | 76 | 30.05 | SE | 4 | 0.00 |
| 16 | 06/02 | 09:00 | 67 | 60 | 80 | 30.06 | SE | 3 | 0.00 |
| 17 | 06/02 | 08:00 | 65 | 59 | 83 | 30.05 | SE | 5 | 0.00 |
| 18 | 06/02 | 07:00 | 65 | 60 | 85 | 30.05 | SE | 4 | 0.00 |
| 19 | 06/02 | 06:00 | 64 | 59 | 85 | 30.03 | SE | 2 | 0.00 |
| 20 | 06/02 | 05:00 | 63 | 57 | 82 | 30.02 | E | 0 | 0.00 |
| 21 | 06/02 | 04:00 | 65 | 59 | 82 | 30.02 | E | 0 | 0.00 |
| 22 | 06/02 | 03:00 | 65 | 57 | 78 | 30.03 | ESE | 1 | 0.00 |
| 23 | 06/02 | 02:00 | 66 | 55 | 70 | 30.03 | ESE | 0 | 0.00 |
| 24 | 06/02 | 01:00 | 67 | 54 | 64 | 30.03 | SE | 0 | 0.00 |